createdAt,value
2023-02-22T00:00:56.449Z,25.40
2023-02-22T00:03:28.212Z,24.07
2023-02-22T00:05:58.522Z,26.40
2023-02-22T00:08:31.008Z,23.70
2023-02-22T00:11:08.533Z,24.47
2023-02-22T00:13:37.152Z,23.17
2023-02-22T00:16:04.726Z,24.77
2023-02-22T00:18:31.473Z,24.60
2023-02-22T00:21:00.424Z,23.00
2023-02-22T00:23:29.800Z,25.70
2023-02-22T00:25:58.495Z,25.77
2023-02-22T00:28:25.898Z,26.60
2023-02-22T00:30:55.035Z,24.97
2023-02-22T00:33:21.887Z,25.27
2023-02-22T00:35:48.744Z,25.03
2023-02-22T00:38:18.340Z,25.00
2023-02-22T00:40:45.531Z,25.70
2023-02-22T00:43:12.337Z,25.50
2023-02-22T00:45:39.064Z,25.83
2023-02-22T00:48:06.965Z,25.90
2023-02-22T00:50:34.737Z,25.87
2023-02-22T00:53:03.884Z,24.00
2023-02-22T00:55:32.982Z,23.13
2023-02-22T00:58:00.237Z,23.10
2023-02-22T01:00:36.526Z,22.80
2023-02-22T01:03:06.994Z,23.60
2023-02-22T01:05:34.188Z,23.70
2023-02-22T01:08:02.462Z,22.83
2023-02-22T01:10:31.292Z,23.63
2023-02-22T01:12:59.952Z,22.43
2023-02-22T01:15:30.990Z,22.63
2023-02-22T01:17:59.579Z,23.93
2023-02-22T01:20:27.551Z,24.77
2023-02-22T01:22:55.847Z,22.60
2023-02-22T01:25:29.547Z,21.83
2023-02-22T01:27:58.468Z,22.20
2023-02-22T01:30:28.377Z,22.53
2023-02-22T01:32:55.381Z,21.07
2023-02-22T01:35:26.144Z,21.87
2023-02-22T01:37:52.812Z,21.13
2023-02-22T01:40:25.723Z,21.97
2023-02-22T01:42:54.428Z,22.13
2023-02-22T01:45:30.397Z,22.30
2023-02-22T01:48:02.291Z,20.80
2023-02-22T01:50:31.854Z,21.10
2023-02-22T01:52:58.912Z,20.80
2023-02-22T01:55:25.904Z,20.43
2023-02-22T01:57:52.833Z,20.87
2023-02-22T02:00:22.196Z,19.60
2023-02-22T02:02:58.903Z,18.73
2023-02-22T02:05:27.145Z,17.93
2023-02-22T02:07:54.209Z,18.77
2023-02-22T02:10:21.628Z,17.67
2023-02-22T02:12:51.071Z,17.17
2023-02-22T02:15:32.586Z,17.50
2023-02-22T02:18:03.975Z,16.27
2023-02-22T02:20:42.914Z,17.50
2023-02-22T02:23:12.546Z,16.03
2023-02-22T02:25:58.067Z,16.53
2023-02-22T02:28:50.941Z,14.90
2023-02-22T02:31:27.670Z,14.67
2023-02-22T02:34:05.313Z,15.40
2023-02-22T02:37:02.126Z,14.07
2023-02-22T02:39:57.345Z,14.90
2023-02-22T02:42:38.358Z,12.20
2023-02-22T02:45:18.047Z,12.77
2023-02-22T02:47:58.655Z,12.67
2023-02-22T02:50:33.937Z,12.43
2023-02-22T02:53:04.769Z,11.60
2023-02-22T02:55:32.907Z,11.67
2023-02-22T02:58:00.393Z,10.17
2023-02-22T03:00:31.703Z,10.20
2023-02-22T03:03:20.799Z,10.57
2023-02-22T03:06:09.171Z,8.97
2023-02-22T03:08:50.640Z,9.10
2023-02-22T03:11:25.325Z,9.17
2023-02-22T03:13:57.923Z,9.03
2023-02-22T03:16:45.881Z,9.57
2023-02-22T03:19:21.102Z,7.97
2023-02-22T03:22:10.781Z,8.47
2023-02-22T03:25:07.208Z,8.93
2023-02-22T03:27:54.549Z,8.60
2023-02-22T03:30:30.888Z,8.30
2023-02-22T03:33:09.186Z,8.40
2023-02-22T03:35:42.000Z,7.60
2023-02-22T03:38:12.814Z,8.37
2023-02-22T03:40:46.562Z,7.93
2023-02-22T03:43:25.699Z,8.00
2023-02-22T03:45:53.451Z,7.27
2023-02-22T03:48:29.599Z,7.50
2023-02-22T03:50:58.498Z,7.47
2023-02-22T03:53:25.744Z,7.40
2023-02-22T03:55:55.697Z,7.37
2023-02-22T03:58:25.456Z,7.17
2023-02-22T04:00:53.380Z,7.30
2023-02-22T04:03:21.674Z,6.80
2023-02-22T04:05:48.811Z,7.30
2023-02-22T04:08:16.230Z,7.30
2023-02-22T04:10:43.183Z,7.70
2023-02-22T04:13:10.754Z,7.17
2023-02-22T04:15:37.943Z,6.70
2023-02-22T04:18:05.774Z,7.00
2023-02-22T04:20:34.878Z,7.20
2023-02-22T04:23:01.755Z,6.90
2023-02-22T04:25:28.776Z,7.60
2023-02-22T04:27:55.407Z,7.10
2023-02-22T04:30:22.745Z,8.50
2023-02-22T04:32:49.584Z,7.53
2023-02-22T04:35:16.312Z,7.33
2023-02-22T04:37:43.061Z,8.17
2023-02-22T04:40:11.595Z,8.80
2023-02-22T04:42:39.321Z,8.57
2023-02-22T04:45:08.142Z,8.17
2023-02-22T04:47:36.250Z,7.87
2023-02-22T04:50:07.601Z,7.90
2023-02-22T04:52:34.288Z,8.53
2023-02-22T04:55:01.111Z,8.23
2023-02-22T04:57:27.792Z,10.40
2023-02-22T04:59:54.460Z,9.07
2023-02-22T05:02:21.423Z,7.93
2023-02-22T05:04:48.346Z,8.83
2023-02-22T05:07:15.037Z,9.67
2023-02-22T05:09:41.857Z,8.83
2023-02-22T05:12:08.683Z,9.43
2023-02-22T05:14:35.601Z,9.93
2023-02-22T05:17:03.817Z,10.97
2023-02-22T05:19:30.733Z,10.63
2023-02-22T05:21:57.719Z,9.77
2023-02-22T05:24:24.650Z,10.30
2023-02-22T05:26:51.441Z,12.07
2023-02-22T05:29:18.260Z,10.60
2023-02-22T05:31:45.037Z,12.80
2023-02-22T05:34:12.152Z,12.17
2023-02-22T05:36:38.959Z,12.10
2023-02-22T05:39:05.673Z,12.57
2023-02-22T05:41:32.384Z,12.53
2023-02-22T05:43:59.132Z,14.70
2023-02-22T05:46:25.897Z,16.27
2023-02-22T05:48:52.569Z,18.87
2023-02-22T05:51:19.770Z,16.80
2023-02-22T05:53:46.644Z,16.67
2023-02-22T05:56:13.274Z,16.47
2023-02-22T05:58:39.952Z,14.67
2023-02-22T06:01:06.645Z,14.83
2023-02-22T06:03:33.374Z,18.07
2023-02-22T06:06:00.090Z,18.73
2023-02-22T06:08:26.914Z,16.90
2023-02-22T06:10:53.600Z,17.23
2023-02-22T06:13:20.347Z,17.10
2023-02-22T06:15:47.062Z,18.37
2023-02-22T06:18:13.751Z,18.73
2023-02-22T06:20:40.535Z,18.90
2023-02-22T06:23:07.408Z,20.27
2023-02-22T06:25:34.132Z,20.43
2023-02-22T06:28:01.484Z,21.37
2023-02-22T06:30:29.530Z,19.27
2023-02-22T06:32:56.260Z,21.33
2023-02-22T06:35:23.624Z,19.10
2023-02-22T06:37:50.531Z,20.40
2023-02-22T06:40:17.477Z,18.57
2023-02-22T06:42:44.180Z,20.23
2023-02-22T06:45:11.234Z,20.67
2023-02-22T06:47:40.649Z,18.40
2023-02-22T06:50:17.492Z,17.83
2023-02-22T06:52:44.655Z,21.10
2023-02-22T06:55:11.312Z,20.23
2023-02-22T06:57:37.973Z,19.67
2023-02-22T07:00:04.986Z,20.97
2023-02-22T07:02:31.659Z,20.50
2023-02-22T07:04:58.315Z,20.70
2023-02-22T07:07:25.362Z,18.43
2023-02-22T07:09:52.022Z,18.33
2023-02-22T07:12:18.840Z,19.83
2023-02-22T07:14:45.534Z,20.47
2023-02-22T07:17:12.776Z,19.70
2023-02-22T07:19:39.622Z,19.37
2023-02-22T07:22:06.976Z,19.13
2023-02-22T07:24:35.158Z,21.20
2023-02-22T07:27:02.737Z,20.63
2023-02-22T07:29:30.138Z,19.93
2023-02-22T07:31:58.098Z,20.77
2023-02-22T07:34:24.840Z,20.87
2023-02-22T07:36:51.523Z,21.40
2023-02-22T07:39:18.249Z,20.30
2023-02-22T07:41:44.932Z,21.37
2023-02-22T07:44:11.578Z,20.30
2023-02-22T07:46:38.411Z,21.97
2023-02-22T07:49:05.432Z,19.23
2023-02-22T07:51:32.146Z,17.83
2023-02-22T07:53:58.840Z,21.90
2023-02-22T07:56:25.467Z,20.37
2023-02-22T07:58:52.195Z,20.77
2023-02-22T08:01:19.100Z,25.33
2023-02-22T08:03:47.680Z,24.20
2023-02-22T08:06:14.467Z,25.03
2023-02-22T08:08:41.170Z,23.87
2023-02-22T08:11:07.845Z,26.57
2023-02-22T08:13:37.206Z,24.23
2023-02-22T08:16:04.268Z,24.50
2023-02-22T08:18:31.232Z,24.43
2023-02-22T08:20:57.918Z,26.73
2023-02-22T08:23:27.030Z,24.87
2023-02-22T08:25:54.499Z,25.47
2023-02-22T08:28:23.686Z,26.70
2023-02-22T08:30:51.161Z,25.90
2023-02-22T08:33:19.823Z,28.33
2023-02-22T08:35:49.844Z,27.83
2023-02-22T08:38:24.547Z,28.23
2023-02-22T08:40:51.890Z,30.30
2023-02-22T08:43:20.091Z,31.40
2023-02-22T08:45:47.618Z,30.10
2023-02-22T08:48:15.834Z,28.93
2023-02-22T08:50:42.709Z,31.17
2023-02-22T08:53:10.584Z,28.13
2023-02-22T08:55:41.262Z,27.03
2023-02-22T08:58:13.685Z,25.37
2023-02-22T09:00:43.868Z,25.93
2023-02-22T09:03:14.629Z,24.57
2023-02-22T09:05:44.608Z,21.97
2023-02-22T09:08:13.447Z,23.23
2023-02-22T09:10:40.875Z,23.23
2023-02-22T09:13:07.679Z,21.03
2023-02-22T09:15:37.769Z,21.30
2023-02-22T09:18:08.504Z,21.97
2023-02-22T09:20:38.015Z,20.47
2023-02-22T09:23:07.395Z,20.17
2023-02-22T09:25:39.092Z,19.90
2023-02-22T09:28:06.016Z,20.20
2023-02-22T09:30:34.657Z,20.70
2023-02-22T09:33:07.917Z,18.90
2023-02-22T09:35:36.357Z,20.20
2023-02-22T09:38:06.506Z,19.67
2023-02-22T09:40:41.043Z,19.30
2023-02-22T09:43:33.338Z,19.77
2023-02-22T09:46:21.342Z,19.43
2023-02-22T09:48:54.318Z,20.60
2023-02-22T09:51:22.316Z,19.60
2023-02-22T09:53:51.648Z,18.90
2023-02-22T09:56:20.923Z,18.60
2023-02-22T09:58:52.444Z,17.70
2023-02-22T10:01:56.781Z,18.93
2023-02-22T10:04:41.430Z,18.70
2023-02-22T10:07:28.530Z,17.83
2023-02-22T10:09:57.631Z,18.03
2023-02-22T10:12:34.054Z,18.20
2023-02-22T10:15:22.609Z,17.70
2023-02-22T10:18:24.864Z,17.83
2023-02-22T10:21:00.168Z,19.03
2023-02-22T10:23:47.614Z,18.90
2023-02-22T10:26:25.579Z,17.93
2023-02-22T10:29:19.004Z,17.50
2023-02-22T10:31:50.592Z,17.70
2023-02-22T10:34:23.584Z,17.77
2023-02-22T10:37:13.892Z,18.63
2023-02-22T10:39:43.004Z,18.73
2023-02-22T10:42:09.866Z,18.10
2023-02-22T10:44:38.422Z,18.23
2023-02-22T10:47:11.695Z,19.87
2023-02-22T10:49:44.055Z,19.83
2023-02-22T10:52:29.404Z,19.70
2023-02-22T10:55:13.531Z,19.50
2023-02-22T10:57:44.409Z,19.10
2023-02-22T11:00:19.742Z,19.23
2023-02-22T11:02:58.168Z,18.37
2023-02-22T11:05:31.136Z,17.63
2023-02-22T11:08:22.931Z,19.47
2023-02-22T11:10:56.435Z,18.40
2023-02-22T11:13:31.198Z,19.27
2023-02-22T11:16:18.683Z,18.83
2023-02-22T11:18:47.132Z,18.97
2023-02-22T11:21:22.802Z,19.00
2023-02-22T11:23:50.534Z,18.60
2023-02-22T11:26:20.701Z,18.13
2023-02-22T11:28:56.242Z,18.10
2023-02-22T11:31:28.361Z,17.97
2023-02-22T11:36:40.931Z,19.30
2023-02-22T11:39:24.680Z,19.33
2023-02-22T11:41:52.006Z,19.93
2023-02-22T11:44:27.677Z,19.10
2023-02-22T11:46:56.470Z,18.97
2023-02-22T11:49:33.345Z,18.07
2023-02-22T11:52:12.015Z,18.27
2023-02-22T11:55:32.723Z,18.33
2023-02-22T11:58:23.273Z,17.43
2023-02-22T12:01:07.154Z,17.77
2023-02-22T12:04:00.881Z,17.80
2023-02-22T12:06:45.498Z,17.00
2023-02-22T12:09:18.686Z,16.87
2023-02-22T12:11:55.033Z,17.77
2023-02-22T12:14:21.636Z,17.57
2023-02-22T12:17:03.810Z,17.53
2023-02-22T12:19:43.331Z,16.70
2023-02-22T12:22:33.567Z,17.20
2023-02-22T12:25:25.174Z,17.20
2023-02-22T12:28:27.294Z,17.63
2023-02-22T12:31:10.176Z,16.53
2023-02-22T12:33:51.973Z,16.83
2023-02-22T12:36:25.015Z,16.20
2023-02-22T12:39:00.493Z,15.63
2023-02-22T12:41:40.426Z,15.27
2023-02-22T12:44:26.332Z,15.80
2023-02-22T12:46:57.255Z,15.70
2023-02-22T12:50:05.860Z,14.87
2023-02-22T12:52:48.238Z,14.63
2023-02-22T12:55:21.820Z,15.10
2023-02-22T12:58:17.892Z,14.27
2023-02-22T13:01:18.067Z,13.33
2023-02-22T13:03:45.675Z,13.80
2023-02-22T13:06:29.998Z,13.87
2023-02-22T13:09:03.715Z,13.33
2023-02-22T13:12:07.887Z,12.87
2023-02-22T13:15:09.608Z,13.33
2023-02-22T13:18:03.052Z,13.10
2023-02-22T13:20:43.214Z,13.67
2023-02-22T13:23:13.807Z,12.47
2023-02-22T13:26:24.639Z,12.27
2023-02-22T13:29:24.957Z,12.30
2023-02-22T13:32:07.193Z,12.10
2023-02-22T13:34:33.786Z,12.27
2023-02-22T13:37:09.375Z,12.07
2023-02-22T13:39:46.102Z,11.70
2023-02-22T13:42:48.530Z,11.27
2023-02-22T13:45:27.346Z,10.87
2023-02-22T13:48:06.922Z,10.93
2023-02-22T13:50:36.524Z,10.60
2023-02-22T13:53:13.183Z,10.20
2023-02-22T13:55:43.304Z,9.60
2023-02-22T13:58:12.732Z,9.73
2023-02-22T14:00:40.747Z,9.27
2023-02-22T14:03:13.575Z,9.53
2023-02-22T14:05:43.073Z,9.03
2023-02-22T14:08:19.084Z,9.30
2023-02-22T14:10:48.978Z,9.17
2023-02-22T14:13:22.618Z,9.43
2023-02-22T14:16:02.388Z,9.00
2023-02-22T14:18:42.904Z,8.20
2023-02-22T14:21:16.111Z,8.30
2023-02-22T14:23:57.065Z,7.73
2023-02-22T14:26:28.869Z,8.33
2023-02-22T14:29:10.955Z,7.03
2023-02-22T14:31:40.788Z,6.67
2023-02-22T14:34:16.475Z,6.27
2023-02-22T14:37:01.133Z,6.20
2023-02-22T14:39:34.564Z,6.03
2023-02-22T14:42:23.270Z,5.80
2023-02-22T14:44:52.984Z,5.80
2023-02-22T14:47:28.664Z,5.60
2023-02-22T14:50:05.163Z,6.47
2023-02-22T14:52:35.062Z,6.60
2023-02-22T14:55:08.422Z,6.47
2023-02-22T14:57:48.456Z,6.73
2023-02-22T15:00:19.984Z,6.30
2023-02-22T15:02:52.574Z,7.30
2023-02-22T15:05:21.025Z,7.23
2023-02-22T15:08:03.950Z,6.83
2023-02-22T15:10:39.142Z,6.80
2023-02-22T15:13:15.882Z,6.70
2023-02-22T15:15:49.606Z,6.77
2023-02-22T15:18:30.416Z,7.70
2023-02-22T15:21:02.525Z,6.50
2023-02-22T15:23:41.822Z,7.03
2023-02-22T15:26:31.652Z,6.77
2023-02-22T15:28:59.831Z,7.07
2023-02-22T15:31:35.495Z,6.30
2023-02-22T15:34:42.723Z,7.00
2023-02-22T15:37:29.213Z,6.83
2023-02-22T15:40:14.765Z,7.30
2023-02-22T15:42:58.396Z,7.37
2023-02-22T15:45:26.298Z,7.83
2023-02-22T15:47:54.974Z,7.17
2023-02-22T15:50:27.882Z,6.77
2023-02-22T15:53:01.686Z,7.70
2023-02-22T15:55:36.745Z,7.47
2023-02-22T15:58:18.849Z,7.97
2023-02-22T16:00:50.771Z,7.63
2023-02-22T16:03:23.859Z,7.80
2023-02-22T16:05:55.722Z,7.93
2023-02-22T16:08:25.263Z,8.63
2023-02-22T16:11:02.647Z,8.70
2023-02-22T16:13:33.854Z,9.53
2023-02-22T16:16:06.087Z,8.93
2023-02-22T16:18:34.606Z,8.67
2023-02-22T16:21:12.958Z,8.60
2023-02-22T16:23:49.325Z,9.47
2023-02-22T16:26:35.121Z,8.87
2023-02-22T16:29:08.255Z,8.63
2023-02-22T16:31:37.668Z,8.13
2023-02-22T16:34:06.934Z,7.53
2023-02-22T16:36:43.210Z,8.10
2023-02-22T16:39:27.170Z,7.60
2023-02-22T16:42:05.331Z,7.37
2023-02-22T16:44:32.018Z,7.27
2023-02-22T16:47:00.668Z,6.60
2023-02-22T16:49:27.653Z,6.13
2023-02-22T16:51:58.817Z,6.50
2023-02-22T16:54:34.397Z,6.90
2023-02-22T16:57:03.977Z,6.77
2023-02-22T16:59:38.782Z,6.93
2023-02-22T17:02:09.119Z,7.10
2023-02-22T17:04:35.778Z,7.57
2023-02-22T17:07:05.143Z,8.43
2023-02-22T17:09:33.061Z,7.97
2023-02-22T17:12:00.512Z,8.40
2023-02-22T17:14:31.914Z,9.90
2023-02-22T17:16:59.444Z,10.23
2023-02-22T17:19:26.646Z,10.13
2023-02-22T17:21:53.803Z,9.53
2023-02-22T17:24:23.285Z,9.90
2023-02-22T17:26:52.142Z,8.90
2023-02-22T17:29:18.916Z,9.87
2023-02-22T17:31:46.279Z,9.20
2023-02-22T17:34:13.203Z,9.83
2023-02-22T17:36:39.935Z,10.03
2023-02-22T17:39:10.271Z,10.63
2023-02-22T17:41:40.181Z,9.80
2023-02-22T17:44:07.502Z,10.00
2023-02-22T17:46:36.169Z,9.23
2023-02-22T17:49:03.461Z,9.83
2023-02-22T17:51:30.271Z,8.83
2023-02-22T17:53:57.251Z,9.50
2023-02-22T17:56:24.073Z,9.87
2023-02-22T17:58:54.239Z,9.00
2023-02-22T18:01:32.165Z,9.63
2023-02-22T18:04:01.457Z,9.10
2023-02-22T18:06:30.243Z,7.47
2023-02-22T18:08:58.990Z,7.10
2023-02-22T18:11:27.210Z,7.97
2023-02-22T18:13:55.534Z,7.93
2023-02-22T18:16:23.305Z,8.47
2023-02-22T18:18:50.082Z,9.93
2023-02-22T18:21:16.802Z,9.97
2023-02-22T18:23:46.723Z,8.93
2023-02-22T18:26:18.787Z,9.30
2023-02-22T18:28:45.785Z,10.20
2023-02-22T18:31:15.013Z,11.47
2023-02-22T18:33:47.853Z,11.10
2023-02-22T18:36:16.696Z,11.07
2023-02-22T18:38:44.760Z,11.57
2023-02-22T18:41:14.325Z,10.30
2023-02-22T18:43:41.483Z,9.87
2023-02-22T18:46:17.902Z,10.00
2023-02-22T18:48:47.075Z,10.63
2023-02-22T18:51:15.955Z,10.40
2023-02-22T18:53:47.096Z,9.30
2023-02-22T18:56:22.142Z,9.07
2023-02-22T18:58:54.098Z,9.63
2023-02-22T19:01:22.156Z,9.80
2023-02-22T19:03:49.240Z,10.13
2023-02-22T19:06:17.633Z,10.67
2023-02-22T19:08:46.145Z,10.03
2023-02-22T19:11:21.774Z,9.60
2023-02-22T19:13:51.524Z,9.97
2023-02-22T19:16:20.359Z,12.47
2023-02-22T19:18:49.016Z,12.00
2023-02-22T19:21:16.440Z,12.87
2023-02-22T19:23:46.218Z,15.03
2023-02-22T19:26:18.541Z,15.67
2023-02-22T19:28:46.640Z,14.47
2023-02-22T19:31:19.857Z,13.80
2023-02-22T19:33:48.634Z,16.00
2023-02-22T19:36:16.248Z,16.67
2023-02-22T19:38:43.591Z,17.67
2023-02-22T19:41:24.306Z,15.03
2023-02-22T19:43:55.871Z,16.73
2023-02-22T19:46:24.836Z,16.90
2023-02-22T19:48:53.231Z,16.67
2023-02-22T19:51:25.288Z,16.63
2023-02-22T19:53:52.736Z,15.47
2023-02-22T19:56:27.094Z,14.93
2023-02-22T19:58:55.630Z,15.73
2023-02-22T20:01:25.271Z,16.17
2023-02-22T20:03:54.494Z,15.07
2023-02-22T20:06:23.118Z,14.33
2023-02-22T20:08:51.118Z,14.13
2023-02-22T20:11:18.175Z,14.80
2023-02-22T20:13:45.350Z,14.50
2023-02-22T20:16:15.771Z,14.43
2023-02-22T20:18:43.940Z,15.00
2023-02-22T20:21:14.044Z,13.97
2023-02-22T20:23:44.335Z,14.20
2023-02-22T20:26:17.309Z,15.43
2023-02-22T20:28:44.076Z,13.07
2023-02-22T20:31:13.807Z,14.33
2023-02-22T20:33:45.762Z,14.37
2023-02-22T20:36:15.329Z,14.23
2023-02-22T20:38:42.878Z,13.00
2023-02-22T20:41:15.519Z,14.30
2023-02-22T20:43:42.253Z,13.70
2023-02-22T20:46:09.024Z,13.50
2023-02-22T20:48:35.710Z,13.37
2023-02-22T20:51:14.292Z,13.23
2023-02-22T20:53:42.388Z,13.40
2023-02-22T20:56:17.951Z,14.57
2023-02-22T20:58:45.228Z,13.77
2023-02-22T21:01:14.106Z,12.73
2023-02-22T21:03:44.661Z,13.07
2023-02-22T21:06:15.471Z,14.30
2023-02-22T21:08:44.317Z,14.17
2023-02-22T21:11:15.363Z,14.30
2023-02-22T21:13:42.595Z,13.80
2023-02-22T21:16:15.505Z,14.67
2023-02-22T21:18:42.232Z,14.47
2023-02-22T21:21:12.677Z,14.43
2023-02-22T21:23:42.980Z,14.00
2023-02-22T21:26:18.798Z,14.23
2023-02-22T21:28:51.236Z,14.87
2023-02-22T21:31:21.309Z,14.40
2023-02-22T21:33:50.856Z,14.83
2023-02-22T21:36:19.079Z,14.90
2023-02-22T21:38:57.065Z,15.47
2023-02-22T21:41:27.696Z,15.20
2023-02-22T21:43:56.744Z,14.87
2023-02-22T21:46:29.031Z,15.33
2023-02-22T21:48:58.722Z,16.43
2023-02-22T21:51:31.631Z,16.77
2023-02-22T21:54:03.398Z,17.27
2023-02-22T21:56:34.359Z,16.00
2023-02-22T21:59:06.306Z,16.57
2023-02-22T22:01:36.731Z,16.10
2023-02-22T22:04:04.443Z,17.73
2023-02-22T22:06:34.407Z,15.77
2023-02-22T22:09:04.635Z,17.40
2023-02-22T22:11:31.303Z,16.27
2023-02-22T22:13:59.730Z,16.53
2023-02-22T22:16:29.834Z,16.87
2023-02-22T22:18:56.869Z,18.03
2023-02-22T22:21:25.323Z,15.17
2023-02-22T22:23:56.112Z,16.60
2023-02-22T22:26:24.831Z,15.67
2023-02-22T22:28:56.017Z,16.97
2023-02-22T22:31:26.023Z,17.17
2023-02-22T22:33:54.502Z,17.10
2023-02-22T22:36:22.339Z,16.87
2023-02-22T22:38:49.443Z,17.00
2023-02-22T22:41:19.378Z,16.70
2023-02-22T22:43:46.886Z,16.27
2023-02-22T22:46:16.347Z,16.80
2023-02-22T22:48:47.010Z,16.13
2023-02-22T22:51:21.124Z,16.47
2023-02-22T22:53:49.556Z,17.67
2023-02-22T22:56:19.431Z,18.00
2023-02-22T22:58:57.401Z,17.77
2023-02-22T23:01:33.538Z,16.57
2023-02-22T23:04:02.870Z,16.90
2023-02-22T23:06:33.043Z,17.87
2023-02-22T23:09:37.628Z,18.23
2023-02-22T23:12:09.161Z,16.77
2023-02-22T23:14:38.742Z,18.40
2023-02-22T23:17:15.368Z,18.00
2023-02-22T23:19:45.063Z,17.13
2023-02-22T23:22:14.465Z,19.43
2023-02-22T23:24:41.526Z,18.37
2023-02-22T23:27:10.854Z,19.43
2023-02-22T23:29:39.737Z,17.60
2023-02-22T23:32:07.366Z,18.90
2023-02-22T23:34:36.054Z,18.57
2023-02-22T23:37:03.232Z,19.57
2023-02-22T23:39:29.927Z,20.67
2023-02-22T23:41:59.400Z,20.83
2023-02-22T23:44:27.643Z,19.90
2023-02-22T23:46:57.714Z,20.23
2023-02-22T23:49:35.723Z,21.27
2023-02-22T23:52:03.818Z,21.43
2023-02-22T23:54:36.687Z,22.37
2023-02-22T23:57:04.953Z,21.67
2023-02-22T23:59:32.826Z,22.67
